Terminal Aerodrome Forecast
Issued by NWS

Home | Current Version | Previous Version | Text Only | Print | Product List | Glossary On
Versions: 1 2 3 4 5 6 7 8 9 10 11 12 13 14 15 16 17 18 19 20 21 22 23 24 25
000
FTUS44 KFWD 072325
TAFGKY
TAF
KGKY 072325Z 0800/0824 18015KT P6SM VCSH SCT040 BKN060
     FM080700 18014KT P6SM SHRA BKN025
     FM081500 19013KT P6SM VCSH BKN040
     FM081700 18015KT P6SM SCT050=

USA.gov is the U.S. government's official web portal to all federal, state and local government web resources and services.